WEER

WEER2018-09-17T10:26:03+00:00

Local

EHAM

EHAM 110855Z VRB02KT 9999 VCSH FEW019 FEW022TCU SCT029 05/04 Q1024 NOSIG

EHAM

TAF EHAM 110516Z 1106/1212 32006KT 9999 SCT030 PROB30 TEMPO 1106/1109 -SHRA SCT022TCU

METAR Cross-country

EHKD

EHKD 110857Z AUTO 35006KT 300V030 9999 FEW020 SCT025 BKN033 07/03 Q1023 BLU 33006KT 9999 FEW025 SCT035 SCT045

EHGG

EHGG 110855Z AUTO 29004KT 9999 NCD 04/02 Q1021 NOSIG

EDLW

EHLW 110855Z AUTO 33008KT 310V010 9999 FEW032 OVC049 05/02 Q1022 BLU

EDDW

EDDW 110850Z 29006KT 9999 FEW040 04/02 Q1019 NOSIG

EHRD

EHRD 110855Z AUTO 28002KT 9999 FEW028 BKN032 OVC037 04/03 Q1025 NOSIG

EHDL

EHDL 110855Z AUTO VRB02KT 9999 FEW024 SCT036 BKN042 01/01 Q1023 BLU

EHEH

EHEH 110855Z AUTO 26005KT 9999 FEW036 SCT044 03/01 Q1024 BLU 26007KT 9999 SCT030 BKN045

EBAW

EBAW 110850Z 26003KT CAVOK 05/02 Q1025 NOSIG

EHBK

EHBK 110855Z AUTO 26006KT 230V290 9999 NSC 04/01 Q1024 NOSIG

TAF Cross-country

EHKD

TAF TAF EHKD 110503Z 1106/1118 33008KT 9999 SCT035 SCT060

EHGG

TAF EHGG 110448Z 1106/1212 28008KT 9999 SCT040 BECMG 1120/1123 07003KT 6000 PROB30 1123/1210 2000 MIFG BR PROB30 1208/1212 BKN008 BECMG 1209/1212 9999

EDDW

TAF EDDW 110500Z 1106/1206 29012KT 9999 SCT020 BECMG 1115/1118 34005KT BECMG 1203/1206 04005KT

EHRD

TAF EHRD 110516Z 1106/1212 32006KT 9999 SCT030 PROB30 1203/1208 7000 MIFG

EHEH

TAF TAF EHEH 110459Z 1106/1212 25006KT 9999 SCT035 BKN045 BECMG 1120/1122 3000 BR PROB40 1200/1207 0500 FZFG BECMG 1207/1209 08004KT

EHBK

TAF EHBK 110448Z 1106/1212 25005KT 9999 BKN040 PROB30 TEMPO 1109/1116 7000 -SHRA FEW025TCU BKN040 BECMG 1121/1123 6000 BECMG 1123/1202 0500 FG BKN000 PROB30 1123/1212 4000 BR BKN045 PROB40 1200/1210 FZFG BECMG 1210/1212 07005KT 2000 BR BKN003

Weerbulletin KNMI

Gebruik deze link voor hoogtewinden en omschrijving weersituatie voor de kleine luchtvaart.

Weerminima

Gebruik deze link voor onze weerminima bij lokale- en overland (Dual en Solo) lesvluchten.

Verwachte regenval vandaag

6 UTC

12 UTC

18 UTC

Disclaimer: Deze tool helpt bij een veilige vluchtuitvoering en de Pilot In Command blijft verantwoordelijk voor gebruik van de originele en meest actuele bronnen. Refresh deze pagina voor het meest actuele weer.